»·PEaware :: WAT175 KLAS-KSAN

WAT175 :: KLAS-KSAN

FLIGHT INFORMATION

Flight Status: Arrived
Operator:
Walker Air Transport
More flights by this operator :: More flights under this callsign
Pilot: Michael C. (27126)
Aircraft: BOEING 737-800
(B738)
More flights by this aircraft type
Origin: KLAS McCarran Intl
United States
Destination: KSAN San Diego Intl-Lindbergh
United States
More flights between these airports :: More routes between these airports
Route: +BOACH8 LVELL LUCKI1
File this flight plan on PilotEdge
Remarks: RMK / SIMBRIEF
Altitude:
(Current/Filed)
32,000ft
Speed:
(Current/Filed)
450kts
Departed: 07-Jul-20 07:00 PM
Arrived: 07-Jul-20 07:44 PM
Distance/Time
Traveled:
225nm/0:44
Distance/Time
To Go:
Arrived

Flight Plot

Page will automatically refresh every two minutes.

Flight plan parsing failed; only flown route is shown


Map Options




Map Legend


Flown Route
Filed Route
Departure Airport
Arrival Airport
Navaid (VOR, NDB)
Fix

Horizontal Profiles

Position Reports

Time Latitude Longitude Heading Altitude Ground
Speed
07-Jul-20 18:30 36.079909 -115.147057 61 2121ft 0kts
07-Jul-20 18:31 36.079909 -115.147057 61 2121ft 0kts
07-Jul-20 18:32 36.079909 -115.147057 61 2121ft 0kts
07-Jul-20 18:33 36.079909 -115.147057 61 2121ft 0kts
07-Jul-20 18:34 36.079909 -115.147057 61 2121ft 0kts
07-Jul-20 18:35 36.079909 -115.147057 61 2121ft 0kts
07-Jul-20 18:36 36.079909 -115.147057 61 2121ft 0kts
07-Jul-20 18:37 36.079909 -115.147057 61 2121ft 0kts
07-Jul-20 18:38 36.079909 -115.147057 61 2121ft 0kts
07-Jul-20 18:39 36.079909 -115.147057 61 2121ft 0kts
07-Jul-20 18:40 36.079909 -115.147057 61 2121ft 0kts
07-Jul-20 18:41 36.079909 -115.147057 61 2121ft 0kts
07-Jul-20 18:42 36.079909 -115.147057 61 2121ft 0kts
07-Jul-20 18:43 36.079909 -115.147057 61 2121ft 0kts
07-Jul-20 18:44 36.079909 -115.147057 61 2121ft 0kts
07-Jul-20 18:45 36.079909 -115.147057 61 2121ft 0kts
07-Jul-20 18:46 36.079909 -115.147057 61 2121ft 0kts
07-Jul-20 18:47 36.079909 -115.147057 61 2121ft 0kts
07-Jul-20 18:48 36.079908 -115.147057 61 2121ft 0kts
07-Jul-20 18:49 36.079816 -115.147509 97 2121ft 2kts
07-Jul-20 18:50 36.080097 -115.147919 158 2121ft 0kts
07-Jul-20 18:51 36.080097 -115.147918 158 2121ft 0kts
07-Jul-20 18:52 36.079664 -115.147716 157 2121ft 0kts
07-Jul-20 18:53 36.079548 -115.147654 156 2121ft 5kts
07-Jul-20 18:54 36.078369 -115.144260 94 2121ft 21kts
07-Jul-20 18:55 36.078270 -115.137406 91 2121ft 19kts
07-Jul-20 18:56 36.078287 -115.131289 89 2121ft 19kts
07-Jul-20 18:57 36.078293 -115.124503 89 2121ft 25kts
07-Jul-20 18:58 36.077475 -115.121498 140 2121ft 0kts
07-Jul-20 18:59 36.076359 -115.124347 268 2121ft 59kts
07-Jul-20 19:00 36.077043 -115.178147 266 3367ft 201kts
07-Jul-20 19:01 36.059823 -115.253715 225 6021ft 244kts
07-Jul-20 19:02 35.994953 -115.290806 201 8932ft 268kts
07-Jul-20 19:03 35.913236 -115.308974 187 10126ft 345kts
07-Jul-20 19:04 35.808747 -115.309896 177 11925ft 381kts
07-Jul-20 19:05 35.701589 -115.297384 177 14240ft 391kts
07-Jul-20 19:06 35.591282 -115.297853 185 16354ft 399kts
07-Jul-20 19:07 35.478577 -115.302590 186 18282ft 409kts
07-Jul-20 19:08 35.362826 -115.307196 186 20057ft 418kts
07-Jul-20 19:09 35.245064 -115.311859 186 21645ft 428kts
07-Jul-20 19:10 35.123418 -115.316645 187 23098ft 438kts
07-Jul-20 19:11 34.998773 -115.321547 187 24329ft 450kts
07-Jul-20 19:12 34.870558 -115.326592 186 25367ft 464kts
07-Jul-20 19:13 34.743252 -115.355633 199 26814ft 460kts
07-Jul-20 19:14 34.621585 -115.402958 202 28600ft 453kts
07-Jul-20 19:15 34.502739 -115.453321 203 30360ft 448kts
07-Jul-20 19:16 34.385521 -115.503977 204 31902ft 445kts
07-Jul-20 19:17 34.274489 -115.571014 214 31919ft 450kts
07-Jul-20 19:19 34.158920 -115.636815 206 31916ft 457kts
07-Jul-20 19:20 34.040407 -115.694490 205 31886ft 459kts
07-Jul-20 19:21 33.921765 -115.750860 205 31729ft 458kts
07-Jul-20 19:22 33.804015 -115.808543 206 31707ft 458kts
07-Jul-20 19:23 33.688563 -115.863559 205 31299ft 433kts
07-Jul-20 19:24 33.577353 -115.915620 207 29707ft 430kts
07-Jul-20 19:25 33.487443 -116.005038 232 28107ft 423kts
07-Jul-20 19:26 33.416173 -116.118003 235 26500ft 428kts
07-Jul-20 19:27 33.345041 -116.230106 225 23793ft 420kts
07-Jul-20 19:28 33.248136 -116.302394 208 19304ft 404kts
07-Jul-20 19:29 33.154940 -116.356986 208 17039ft 345kts
07-Jul-20 19:30 33.070039 -116.406654 207 15136ft 334kts
07-Jul-20 19:31 32.990380 -116.459552 218 13310ft 320kts
07-Jul-20 19:32 32.923302 -116.527228 219 11447ft 311kts
07-Jul-20 19:33 32.859728 -116.591381 220 10274ft 269kts
07-Jul-20 19:34 32.803072 -116.648373 220 9168ft 275kts
07-Jul-20 19:35 32.754543 -116.717797 239 7747ft 272kts
07-Jul-20 19:35 32.725530 -116.780073 239 6646ft 243kts
07-Jul-20 19:37 32.693949 -116.860904 249 5263ft 222kts
07-Jul-20 19:37 32.677232 -116.917856 253 4572ft 224kts
07-Jul-20 19:38 32.684479 -116.988344 283 3995ft 184kts
07-Jul-20 19:40 32.699664 -117.050364 283 2484ft 162kts
07-Jul-20 19:40 32.710071 -117.092299 283 1852ft 157kts
07-Jul-20 19:41 32.721819 -117.141972 285 864ft 157kts
07-Jul-20 19:42 32.731800 -117.182507 283 63ft 148kts
07-Jul-20 19:43 32.735977 -117.201744 239 25ft 0kts
07-Jul-20 19:44 32.734744 -117.203050 234 25ft 5kts
07-Jul-20 19:45 32.734502 -117.203405 230 25ft 0kts
07-Jul-20 19:46 32.734502 -117.203405 230 25ft 0kts
07-Jul-20 19:47 32.734502 -117.203405 230 25ft 0kts

Navigation Log

Ident Type
Flight plan parsing failed, navigation log unavailable